ADDS METAR Data

Data at: 1834 UTC 20 Jul 2018

METAR for:KMTP (Montauk Arpt, NY, US)
Text:KMTP 201754Z AUTO VRB04KT 26/17 A3019 RMK AO1 SLP223 T02610167 10267 20228 58004
Temperature: 26.1°C ( 79°F)
Dewpoint: 16.7°C ( 62°F) [RH = 56%]
Pressure (altimeter):30.19 inches Hg (1022.4 mb) [Sea level pressure: 1022.3 mb]
Winds:variable direction winds at 5 MPH (4 knots; 2.1 m/s)
QC Flag:automated observation with no human augmentation